Time;durP1;ratioP1;P1;durP2;ratioP2;P2;SDS_P1;SDS_P2;PMS_P1;PMS_P2;Temp;Humidity;BMP_temperature;BMP_pressure;BME280_temperature;BME280_humidity;BME280_pressure;Samples;Min_cycle;Max_cycle;Signal;HPM_P1;HPM_P2
2022/07/22 00:01:36;;;;;;;4.32;3.92;;;;;;;22.79;51.67;101054.19;5056032;28;20040;-28
2022/07/22 00:04:02;;;;;;;5.13;4.63;;;;;;;22.76;52.04;101048.97;5074131;28;20527;-28
2022/07/22 00:06:28;;;;;;;5.28;4.05;;;;;;;22.76;51.98;101065.09;5073977;28;20043;-27
2022/07/22 00:08:54;;;;;;;4.85;4.45;;;;;;;22.67;51.91;101065.59;5073993;28;20487;-28
2022/07/22 00:11:19;;;;;;;4.93;4.53;;;;;;;22.68;52.39;101062.81;5074186;28;20031;-28
2022/07/22 00:13:45;;;;;;;4.40;4.10;;;;;;;22.67;52.43;101071.84;5074070;28;20051;-28
2022/07/22 00:16:11;;;;;;;4.32;3.85;;;;;;;22.66;52.46;101059.38;5074035;28;20020;-28
2022/07/22 00:18:36;;;;;;;4.88;4.43;;;;;;;22.63;52.17;101064.91;5055940;28;20282;-28
2022/07/22 00:21:02;;;;;;;4.55;4.15;;;;;;;22.60;51.64;101065.06;5074032;28;20044;-28
2022/07/22 00:23:28;;;;;;;4.38;3.97;;;;;;;22.57;51.71;101069.75;5055435;28;20127;-28
2022/07/22 00:25:53;;;;;;;4.55;4.15;;;;;;;22.55;51.50;101061.72;5073638;28;20415;-28
2022/07/22 00:28:19;;;;;;;5.18;4.20;;;;;;;22.52;51.37;101062.78;5073690;28;20482;-28
2022/07/22 00:30:44;;;;;;;4.75;4.00;;;;;;;22.49;51.53;101062.94;5073799;28;20585;-28
2022/07/22 00:33:09;;;;;;;4.55;4.15;;;;;;;22.43;51.27;101058.75;5055538;28;20085;-28
2022/07/22 00:35:35;;;;;;;4.32;3.92;;;;;;;22.40;51.28;101052.66;5073271;28;20103;-28
2022/07/22 00:38:00;;;;;;;6.28;3.90;;;;;;;22.36;51.12;101051.06;5073531;28;20087;-28
2022/07/22 00:40:25;;;;;;;4.22;3.83;;;;;;;22.32;51.14;101052.19;5055692;28;20028;-28
2022/07/22 00:42:52;;;;;;;4.65;4.25;;;;;;;22.31;51.30;101054.03;5055208;28;20542;-28
2022/07/22 00:45:18;;;;;;;4.03;3.72;;;;;;;22.27;51.33;101044.38;5073146;28;20021;-28
2022/07/22 00:47:43;;;;;;;4.57;3.83;;;;;;;22.25;51.27;101048.97;5073216;28;20031;-28
2022/07/22 00:50:09;;;;;;;5.38;4.18;;;;;;;22.21;51.35;101040.19;5055735;28;20029;-28
2022/07/22 00:52:34;;;;;;;4.45;4.05;;;;;;;22.18;51.76;101043.91;5072746;28;20033;-28
2022/07/22 00:55:00;;;;;;;4.47;4.07;;;;;;;22.18;51.59;101041.22;5073040;28;20020;-28
2022/07/22 00:57:26;;;;;;;4.97;4.03;;;;;;;22.11;51.80;101042.50;5072910;28;20039;-28
2022/07/22 00:59:52;;;;;;;4.47;4.18;;;;;;;22.09;51.87;101040.84;5073296;28;20391;-28
2022/07/22 01:02:17;;;;;;;4.50;4.10;;;;;;;22.05;51.88;101045.50;5055059;28;20021;-28
2022/07/22 01:04:43;;;;;;;4.45;4.05;;;;;;;22.04;51.87;101041.94;5054933;28;20319;-28
2022/07/22 01:07:08;;;;;;;4.82;4.43;;;;;;;22.02;51.74;101042.97;5055032;28;20438;-28
2022/07/22 01:09:33;;;;;;;4.38;3.92;;;;;;;21.98;51.86;101042.28;5054629;28;20430;-28
2022/07/22 01:12:00;;;;;;;4.40;4.00;;;;;;;21.94;52.19;101046.03;5073006;28;20029;-27
2022/07/22 01:14:25;;;;;;;4.55;4.15;;;;;;;21.87;52.10;101045.50;5054438;28;20024;-28
2022/07/22 01:16:51;;;;;;;4.93;4.30;;;;;;;21.87;52.23;101045.50;5073139;28;20471;-28
2022/07/22 01:19:16;;;;;;;4.20;3.85;;;;;;;21.84;52.13;101039.44;5054978;28;20103;-28
2022/07/22 01:21:41;;;;;;;4.28;3.88;;;;;;;21.81;52.31;101044.94;5072866;28;20020;-28
2022/07/22 01:24:07;;;;;;;4.70;4.30;;;;;;;21.70;52.85;101042.78;5072285;28;20657;-28
2022/07/22 01:26:33;;;;;;;4.35;4.05;;;;;;;21.59;53.31;101040.63;5054536;28;20032;-28
2022/07/22 01:28:58;;;;;;;5.00;4.60;;;;;;;21.62;53.87;101041.34;5072735;28;20052;-28
2022/07/22 01:31:24;;;;;;;5.15;4.55;;;;;;;21.60;53.93;101037.88;5072509;28;20104;-28
2022/07/22 01:33:49;;;;;;;5.28;4.75;;;;;;;21.55;54.56;101037.25;5072440;28;20396;-28
2022/07/22 01:36:15;;;;;;;5.15;4.65;;;;;;;21.50;55.95;101028.53;5054321;28;20536;-28
2022/07/22 01:38:40;;;;;;;5.60;5.10;;;;;;;21.44;56.24;101036.91;5072614;28;20017;-28
2022/07/22 01:41:06;;;;;;;5.00;4.50;;;;;;;21.43;55.74;101036.03;5072087;28;20115;-28
2022/07/22 01:43:32;;;;;;;4.80;4.40;;;;;;;21.43;55.26;101029.78;5072305;28;20017;-28
2022/07/22 01:45:57;;;;;;;4.60;4.30;;;;;;;21.44;55.11;101039.59;5072114;28;20047;-28
2022/07/22 01:48:23;;;;;;;4.63;4.22;;;;;;;21.43;55.03;101043.19;5072220;28;20024;-28
2022/07/22 01:50:49;;;;;;;4.75;4.28;;;;;;;21.37;54.88;101045.25;5054139;28;20036;-28
2022/07/22 01:53:14;;;;;;;4.68;4.10;;;;;;;21.41;54.95;101044.16;5071765;28;20043;-28
2022/07/22 01:55:40;;;;;;;5.32;4.60;;;;;;;21.39;55.09;101045.16;5054283;28;20438;-28
2022/07/22 01:58:05;;;;;;;4.97;4.55;;;;;;;21.34;55.42;101047.22;5071834;28;20460;-28
2022/07/22 02:00:32;;;;;;;4.68;4.28;;;;;;;21.27;55.72;101046.63;5054095;28;20036;-28
2022/07/22 02:02:57;;;;;;;4.97;4.53;;;;;;;21.25;55.92;101045.84;5071591;28;20056;-28
2022/07/22 02:05:22;;;;;;;6.72;5.00;;;;;;;21.22;56.32;101040.63;5071682;28;20431;-28
2022/07/22 02:07:48;;;;;;;4.93;4.43;;;;;;;21.21;55.88;101046.94;5071983;28;20021;-28
2022/07/22 02:10:13;;;;;;;4.53;4.20;;;;;;;21.23;55.56;101050.41;5037015;28;20483;-28
2022/07/22 02:12:39;;;;;;;4.95;4.47;;;;;;;21.15;56.09;101037.38;5053795;28;20028;-28
2022/07/22 02:15:05;;;;;;;5.55;4.25;;;;;;;21.18;55.54;101036.34;5072192;28;20028;-28
2022/07/22 02:17:31;;;;;;;7.35;4.50;;;;;;;21.16;56.00;101028.38;5071677;28;20037;-28
2022/07/22 02:19:57;;;;;;;4.57;4.18;;;;;;;21.05;57.43;101038.75;5071306;28;20048;-28
2022/07/22 02:22:22;;;;;;;4.18;3.83;;;;;;;21.00;58.10;101044.31;5071323;28;20062;-28
2022/07/22 02:24:47;;;;;;;4.70;4.30;;;;;;;21.00;57.86;101044.31;5053301;28;20020;-28
2022/07/22 02:27:13;;;;;;;4.28;3.88;;;;;;;20.87;58.55;101042.19;5053714;28;20231;-28
2022/07/22 02:29:38;;;;;;;5.15;4.65;;;;;;;20.91;57.52;101042.97;5071493;28;20056;-28
2022/07/22 02:32:04;;;;;;;5.03;4.63;;;;;;;20.87;57.51;101047.56;5071610;28;20024;-28
2022/07/22 02:34:29;;;;;;;4.63;4.05;;;;;;;20.96;57.17;101048.09;5071584;28;20054;-28
2022/07/22 02:36:55;;;;;;;4.93;4.53;;;;;;;20.91;57.35;101044.78;5053435;28;20078;-28
2022/07/22 02:39:20;;;;;;;5.32;3.97;;;;;;;20.91;56.80;101040.28;5071194;28;20446;-28
2022/07/22 02:41:45;;;;;;;5.03;4.43;;;;;;;20.95;56.60;101046.38;5071835;28;20483;-28
2022/07/22 02:44:11;;;;;;;4.57;4.18;;;;;;;20.92;56.43;101054.53;5053254;28;20024;-28
2022/07/22 02:46:36;;;;;;;4.47;4.05;;;;;;;20.91;56.66;101060.84;5034494;28;20033;-28
2022/07/22 02:49:04;;;;;;;4.00;3.70;;;;;;;20.87;56.92;101060.97;5051513;28;20025;-28
2022/07/22 02:51:29;;;;;;;3.85;3.55;;;;;;;20.90;56.99;101054.63;5051204;28;20020;-28
2022/07/22 02:53:55;;;;;;;4.25;3.85;;;;;;;20.86;56.54;101069.06;5051016;28;20495;-28
2022/07/22 02:56:20;;;;;;;4.03;3.70;;;;;;;20.88;57.07;101070.75;5067610;28;20032;-28
2022/07/22 02:58:46;;;;;;;4.13;3.83;;;;;;;20.85;57.29;101067.34;5071186;28;20387;-28
2022/07/22 03:01:12;;;;;;;3.88;3.40;;;;;;;20.84;57.35;101066.47;5071374;28;20495;-28
2022/07/22 03:03:37;;;;;;;4.05;3.75;;;;;;;20.86;57.15;101067.28;5052934;28;20086;-28
2022/07/22 03:06:03;;;;;;;4.95;4.55;;;;;;;20.77;58.02;101065.88;5071088;28;20028;-28
2022/07/22 03:08:28;;;;;;;4.53;4.13;;;;;;;20.81;58.37;101068.44;5070978;28;20060;-28
2022/07/22 03:10:53;;;;;;;4.22;3.80;;;;;;;20.83;57.50;101071.88;5071096;28;20480;-28
2022/07/22 03:13:19;;;;;;;4.35;3.95;;;;;;;20.84;57.05;101071.81;5070827;28;20071;-28
2022/07/22 03:15:44;;;;;;;4.40;4.00;;;;;;;20.88;56.59;101061.84;5053290;28;20109;-28
2022/07/22 03:18:10;;;;;;;4.80;4.00;;;;;;;20.82;57.29;101067.47;5070998;28;20097;-28
2022/07/22 03:20:36;;;;;;;4.55;4.15;;;;;;;20.82;57.17;101057.63;5053010;28;20020;-28
2022/07/22 03:23:01;;;;;;;4.40;4.00;;;;;;;20.78;57.64;101066.75;5053156;28;20028;-28
2022/07/22 03:25:27;;;;;;;4.57;3.67;;;;;;;20.79;58.38;101065.81;5071067;28;20520;-28
2022/07/22 03:27:52;;;;;;;5.40;4.75;;;;;;;20.78;58.09;101064.09;5052682;28;20032;-28
2022/07/22 03:30:18;;;;;;;6.38;4.85;;;;;;;20.74;59.69;101073.22;5071148;28;20027;-28
2022/07/22 03:32:46;;;;;;;4.97;4.47;;;;;;;20.69;59.59;101073.41;5072534;28;20036;-28
2022/07/22 03:35:12;;;;;;;4.72;4.32;;;;;;;20.64;60.07;101075.41;5074687;28;20028;-27
2022/07/22 03:37:37;;;;;;;4.70;4.30;;;;;;;20.64;60.55;101087.00;5074494;28;20028;-28
2022/07/22 03:40:03;;;;;;;6.28;4.85;;;;;;;20.58;60.40;101076.56;5074824;28;20446;-28
2022/07/22 03:42:29;;;;;;;4.05;3.65;;;;;;;20.60;60.46;101085.41;5074453;28;20369;-28
2022/07/22 03:44:54;;;;;;;5.13;4.07;;;;;;;20.61;60.36;101083.59;5074274;28;20077;-28
2022/07/22 03:47:22;;;;;;;4.63;4.22;;;;;;;20.61;60.66;101079.09;5056636;28;20025;-28
2022/07/22 03:49:48;;;;;;;5.85;4.13;;;;;;;20.64;60.06;101081.66;5074217;28;20095;-28
2022/07/22 03:52:14;;;;;;;4.10;3.70;;;;;;;20.66;59.06;101088.72;5074695;28;20020;-28
2022/07/22 03:54:41;;;;;;;5.10;4.00;;;;;;;20.68;59.24;101081.50;5074463;28;20044;-28
2022/07/22 03:57:06;;;;;;;4.20;3.80;;;;;;;20.70;59.09;101085.84;5074254;28;20048;-28
2022/07/22 03:59:31;;;;;;;6.07;4.22;;;;;;;20.66;58.97;101086.94;5074393;28;20081;-28
2022/07/22 04:01:57;;;;;;;5.22;3.72;;;;;;;20.66;58.63;101088.72;5074110;28;20119;-28
2022/07/22 04:04:22;;;;;;;4.20;3.80;;;;;;;20.69;58.52;101084.13;5074217;28;20032;-28
2022/07/22 04:06:47;;;;;;;4.88;4.38;;;;;;;20.67;58.34;101075.28;5074212;28;20437;-28
2022/07/22 04:09:13;;;;;;;4.32;3.92;;;;;;;20.73;58.23;101074.13;5056326;28;20063;-28
2022/07/22 04:11:38;;;;;;;4.60;4.20;;;;;;;20.72;57.27;101072.38;5074087;28;20016;-28
2022/07/22 04:14:03;;;;;;;4.95;4.30;;;;;;;20.74;57.35;101081.25;5074129;28;20498;-28
2022/07/22 04:16:29;;;;;;;5.40;4.00;;;;;;;20.73;57.46;101084.84;5073622;28;20457;-28
2022/07/22 04:18:54;;;;;;;4.00;3.70;;;;;;;20.72;57.08;101073.28;5056355;28;20056;-28
2022/07/22 04:21:19;;;;;;;4.10;3.70;;;;;;;20.71;57.26;101076.88;5073751;28;20021;-28
2022/07/22 04:23:45;;;;;;;4.68;3.97;;;;;;;20.71;58.03;101081.38;5073398;28;20028;-28
2022/07/22 04:26:10;;;;;;;4.65;3.83;;;;;;;20.68;58.86;101070.78;5074019;28;20032;-28
2022/07/22 04:28:36;;;;;;;4.55;4.15;;;;;;;20.70;58.01;101080.50;5073706;28;20029;-28
2022/07/22 04:31:02;;;;;;;4.50;4.10;;;;;;;20.68;59.26;101081.50;5074191;28;20534;-28
2022/07/22 04:33:27;;;;;;;4.30;3.65;;;;;;;20.71;58.63;101065.31;5073482;28;20043;-28
2022/07/22 04:35:53;;;;;;;5.95;4.05;;;;;;;20.71;58.21;101076.03;5056008;28;20384;-28
2022/07/22 04:38:18;;;;;;;4.63;4.18;;;;;;;20.71;58.49;101078.69;5073351;28;20488;-28
2022/07/22 04:40:43;;;;;;;4.15;3.85;;;;;;;20.72;58.22;101077.75;5073769;28;20433;-28
2022/07/22 04:43:09;;;;;;;4.10;3.70;;;;;;;20.72;58.78;101078.63;5072838;28;20032;-28
2022/07/22 04:45:34;;;;;;;4.22;3.45;;;;;;;20.72;57.95;101072.38;5073565;28;20037;-28
2022/07/22 04:47:59;;;;;;;4.32;3.92;;;;;;;20.72;57.86;101061.66;5073437;28;20492;-28
2022/07/22 04:50:25;;;;;;;4.30;3.85;;;;;;;20.72;57.75;101073.28;5073158;28;20484;-28
2022/07/22 04:52:50;;;;;;;4.07;3.50;;;;;;;20.74;57.80;101075.88;5073155;28;20422;-28
2022/07/22 04:55:15;;;;;;;4.97;3.67;;;;;;;20.72;57.48;101078.63;5073681;28;20471;-28
2022/07/22 04:57:41;;;;;;;4.45;3.90;;;;;;;20.74;57.40;101065.16;5073121;28;20093;-28
2022/07/22 05:00:07;;;;;;;4.22;3.80;;;;;;;20.73;56.93;101071.44;5073211;28;20056;-28
2022/07/22 05:02:32;;;;;;;3.88;3.45;;;;;;;20.74;57.07;101071.38;5073381;28;20056;-28
2022/07/22 05:04:58;;;;;;;4.93;3.90;;;;;;;20.77;57.24;101079.28;5072936;28;20055;-28
2022/07/22 05:07:24;;;;;;;4.72;4.32;;;;;;;20.76;56.89;101072.19;5073074;28;20028;-28
2022/07/22 05:09:49;;;;;;;4.35;3.88;;;;;;;20.74;57.29;101065.16;5072989;28;20024;-28
2022/07/22 05:12:14;;;;;;;4.97;3.97;;;;;;;20.75;58.29;101070.44;5054986;28;20028;-28
2022/07/22 05:14:40;;;;;;;4.60;4.20;;;;;;;20.77;58.38;101065.00;5072927;28;20032;-28
2022/07/22 05:17:09;;;;;;;5.03;4.32;;;;;;;20.79;58.76;101073.84;5072574;28;20025;-28
2022/07/22 05:19:40;;;;;;;4.75;4.35;;;;;;;20.83;58.17;101067.41;5072758;28;20024;-27
2022/07/22 05:22:06;;;;;;;4.65;4.22;;;;;;;20.87;58.11;101076.16;5072837;28;20024;-28
2022/07/22 05:24:32;;;;;;;5.10;3.85;;;;;;;20.89;58.38;101075.22;5054664;28;20127;-28
2022/07/22 05:26:57;;;;;;;7.20;5.18;;;;;;;20.94;59.66;101069.59;5072635;28;20099;-28
2022/07/22 05:29:23;;;;;;;5.57;5.07;;;;;;;21.00;59.91;101068.44;5072416;28;20040;-28
2022/07/22 05:31:48;;;;;;;4.65;4.25;;;;;;;21.02;60.15;101070.16;5072658;28;20024;-28
2022/07/22 05:34:13;;;;;;;6.20;4.63;;;;;;;21.05;59.94;101071.81;5072423;28;20063;-28
2022/07/22 05:36:39;;;;;;;7.07;4.60;;;;;;;21.10;60.07;101076.94;5072253;28;20466;-28
2022/07/22 05:39:04;;;;;;;6.78;4.68;;;;;;;21.14;60.23;101079.41;5072596;28;20024;-28
2022/07/22 05:41:29;;;;;;;6.32;4.13;;;;;;;21.20;60.06;101072.03;5072370;28;20056;-28
2022/07/22 05:43:55;;;;;;;5.85;4.15;;;;;;;21.25;60.35;101080.72;5037438;28;20021;-28
2022/07/22 05:46:20;;;;;;;8.10;4.45;;;;;;;21.30;60.21;101067.09;5072205;28;20032;-28
2022/07/22 05:48:45;;;;;;;4.35;3.95;;;;;;;21.33;61.29;101062.44;5072022;28;20024;-28
2022/07/22 05:51:12;;;;;;;4.13;3.83;;;;;;;21.37;60.56;101064.03;5072059;28;20228;-28
2022/07/22 05:53:38;;;;;;;4.00;3.70;;;;;;;21.45;60.67;101062.78;5072255;28;20025;-28
2022/07/22 05:56:03;;;;;;;5.40;3.30;;;;;;;21.49;60.64;101069.72;5071336;28;20099;-28
2022/07/22 05:58:28;;;;;;;3.53;2.80;;;;;;;21.57;60.63;101069.38;5072198;28;20055;-28
2022/07/22 06:00:54;;;;;;;3.95;3.60;;;;;;;21.63;60.60;101075.28;5071877;28;20070;-28
2022/07/22 06:03:19;;;;;;;3.85;3.55;;;;;;;21.69;60.81;101074.13;5072061;28;20028;-28
2022/07/22 06:05:44;;;;;;;3.90;3.45;;;;;;;21.74;60.77;101071.25;5071963;28;20387;-28
2022/07/22 06:08:10;;;;;;;3.55;3.25;;;;;;;21.80;60.73;101076.28;5071506;28;20033;-28
2022/07/22 06:10:35;;;;;;;3.40;2.97;;;;;;;21.85;60.57;101076.94;5071925;28;20411;-28
2022/07/22 06:13:00;;;;;;;4.05;3.65;;;;;;;21.94;60.13;101077.41;5071446;28;20066;-28
2022/07/22 06:15:26;;;;;;;3.65;3.35;;;;;;;21.99;60.16;101070.00;5071525;28;20021;-28
2022/07/22 06:17:51;;;;;;;3.00;2.70;;;;;;;22.03;59.73;101071.56;5071487;28;20032;-28
2022/07/22 06:20:16;;;;;;;3.53;3.22;;;;;;;22.09;59.95;101070.38;5071726;28;20024;-28
2022/07/22 06:22:42;;;;;;;3.67;3.25;;;;;;;22.17;59.86;101071.72;5071363;28;20050;-28
2022/07/22 06:25:08;;;;;;;3.10;2.90;;;;;;;22.23;59.64;101070.53;5071777;28;20056;-28
2022/07/22 06:27:33;;;;;;;3.35;3.15;;;;;;;22.31;59.79;101078.22;5070915;28;20043;-28
2022/07/22 06:29:59;;;;;;;3.72;3.42;;;;;;;22.37;59.24;101069.81;5071613;28;20175;-28
2022/07/22 06:32:24;;;;;;;3.63;3.30;;;;;;;22.49;59.72;101078.16;5053262;28;20511;-28
2022/07/22 06:34:49;;;;;;;4.60;3.85;;;;;;;22.58;59.61;101075.03;5071515;28;20028;-28
2022/07/22 06:37:14;;;;;;;5.22;3.58;;;;;;;22.66;59.27;101080.88;5071822;28;20029;-27
2022/07/22 06:39:40;;;;;;;3.53;3.00;;;;;;;22.75;58.93;101082.19;5071333;28;20052;-28
2022/07/22 06:42:05;;;;;;;3.38;3.10;;;;;;;22.80;58.68;101081.91;5071764;28;20102;-28
2022/07/22 06:44:31;;;;;;;3.17;2.88;;;;;;;22.88;58.93;101076.13;5071576;28;20081;-28
2022/07/22 06:46:56;;;;;;;3.22;3.00;;;;;;;23.00;58.66;101078.13;5071312;28;20480;-28
2022/07/22 06:49:21;;;;;;;3.33;3.03;;;;;;;23.10;58.47;101069.56;5071192;28;20490;-28
2022/07/22 06:51:47;;;;;;;2.90;2.70;;;;;;;23.15;57.99;101073.75;5071736;28;20017;-28
2022/07/22 06:54:12;;;;;;;3.58;2.83;;;;;;;23.26;58.18;101078.50;5071059;28;20365;-28
2022/07/22 06:56:37;;;;;;;3.40;2.90;;;;;;;23.37;58.03;101069.84;5071462;28;20024;-28
2022/07/22 06:59:03;;;;;;;3.00;2.80;;;;;;;23.44;57.56;101067.69;5071422;28;20452;-27
2022/07/22 07:01:28;;;;;;;3.90;3.22;;;;;;;23.51;57.54;101068.19;5071207;28;20024;-28
2022/07/22 07:03:53;;;;;;;2.85;2.65;;;;;;;23.62;57.14;101075.66;5071070;28;20024;-28
2022/07/22 07:06:19;;;;;;;2.55;2.33;;;;;;;23.74;57.19;101069.53;5072202;28;20063;-28
2022/07/22 07:08:44;;;;;;;2.83;2.63;;;;;;;23.86;56.78;101081.41;5075609;28;20028;-28
2022/07/22 07:11:10;;;;;;;2.58;2.38;;;;;;;23.98;56.58;101078.97;5075119;28;20104;-28
2022/07/22 07:13:35;;;;;;;3.15;2.85;;;;;;;24.07;56.22;101083.78;5075153;28;20048;-28
2022/07/22 07:16:00;;;;;;;2.40;2.25;;;;;;;24.15;55.80;101078.84;5075550;28;20032;-28
2022/07/22 07:18:26;;;;;;;3.20;2.90;;;;;;;24.20;55.53;101079.44;5056760;28;20067;-28
2022/07/22 07:20:51;;;;;;;2.28;2.13;;;;;;;24.25;55.70;101078.28;5075059;28;20029;-27
2022/07/22 07:23:16;;;;;;;2.60;2.40;;;;;;;24.31;55.50;101086.84;5075028;28;20074;-28
2022/07/22 07:25:42;;;;;;;3.63;2.25;;;;;;;24.35;55.29;101084.84;5074917;28;20029;-28
2022/07/22 07:28:07;;;;;;;2.67;2.53;;;;;;;24.40;55.41;101077.34;5074684;28;20029;-28
2022/07/22 07:30:33;;;;;;;2.63;2.42;;;;;;;24.45;55.30;101080.59;5074995;28;20031;-28
2022/07/22 07:33:00;;;;;;;2.42;2.22;;;;;;;24.50;55.45;101079.50;5075140;28;20025;-28
2022/07/22 07:35:25;;;;;;;1.98;1.88;;;;;;;24.54;55.09;101081.03;5074583;28;20215;-28
2022/07/22 07:37:51;;;;;;;3.60;2.15;;;;;;;24.57;54.88;101080.81;5075012;28;20627;-28
2022/07/22 07:40:16;;;;;;;2.65;2.45;;;;;;;24.59;55.26;101085.16;5056945;28;20557;-27
2022/07/22 07:42:41;;;;;;;2.03;1.90;;;;;;;24.64;54.99;101084.88;5067280;28;20029;-28
2022/07/22 07:45:07;;;;;;;2.13;1.98;;;;;;;24.66;55.21;101087.47;5061245;28;20021;-28
2022/07/22 07:47:32;;;;;;;3.05;2.10;;;;;;;24.68;54.99;101086.41;5074566;28;20206;-28
2022/07/22 07:50:00;;;;;;;2.85;1.73;;;;;;;24.71;54.84;101085.38;5074384;28;20115;-28
2022/07/22 07:52:25;;;;;;;2.42;2.22;;;;;;;24.71;54.60;101085.38;5074747;28;20074;-28
2022/07/22 07:54:50;;;;;;;2.03;1.85;;;;;;;24.76;54.75;101085.94;5074298;28;20032;-28
2022/07/22 07:57:17;;;;;;;2.28;2.08;;;;;;;24.78;54.45;101088.53;5074402;28;20431;-28
2022/07/22 07:59:42;;;;;;;3.25;2.08;;;;;;;24.82;54.28;101084.69;5074713;28;20023;-28
2022/07/22 08:02:08;;;;;;;1.90;1.80;;;;;;;24.85;54.46;101084.50;5074248;28;20024;-28
2022/07/22 08:04:35;;;;;;;2.55;1.63;;;;;;;24.93;54.48;101082.19;5073654;28;20028;-28
2022/07/22 08:07:00;;;;;;;1.92;1.83;;;;;;;25.00;53.99;101085.38;5074236;28;20028;-28
2022/07/22 08:09:26;;;;;;;1.60;1.50;;;;;;;25.09;53.21;101083.91;5073858;28;20111;-28
2022/07/22 08:11:51;;;;;;;4.60;1.95;;;;;;;25.17;53.28;101078.88;5074375;28;20032;-27
2022/07/22 08:14:17;;;;;;;2.05;1.90;;;;;;;25.24;52.88;101082.91;5056046;28;20099;-28
2022/07/22 08:16:42;;;;;;;1.50;1.40;;;;;;;25.32;52.67;101085.13;5073810;28;20040;-28
2022/07/22 08:19:08;;;;;;;1.80;1.67;;;;;;;25.36;52.74;101083.09;5073816;28;20050;-28
2022/07/22 08:21:33;;;;;;;1.63;1.52;;;;;;;25.40;52.32;101079.22;5073782;28;20033;-27
2022/07/22 08:23:58;;;;;;;1.70;1.60;;;;;;;25.42;52.64;101074.59;5073629;28;20077;-28
2022/07/22 08:26:24;;;;;;;1.38;1.27;;;;;;;25.46;52.85;101078.81;5055849;28;20029;-28
2022/07/22 08:28:49;;;;;;;1.30;1.20;;;;;;;25.49;52.73;101070.53;5073695;28;20094;-28
2022/07/22 08:31:14;;;;;;;2.08;1.55;;;;;;;25.54;52.94;101080.16;5073704;28;20510;-28
2022/07/22 08:33:40;;;;;;;2.17;1.45;;;;;;;25.59;53.30;101086.13;5072992;28;20025;-28
2022/07/22 08:36:05;;;;;;;2.53;1.60;;;;;;;25.66;52.94;101083.88;5073984;28;20070;-28
2022/07/22 08:38:31;;;;;;;1.67;1.52;;;;;;;25.68;52.96;101088.22;5073458;28;20380;-28
2022/07/22 08:40:57;;;;;;;1.88;1.23;;;;;;;25.68;53.22;101090.94;5073638;28;20273;-28
2022/07/22 08:43:23;;;;;;;1.60;1.50;;;;;;;25.74;53.33;101086.94;5073370;28;20028;-28
2022/07/22 08:45:49;;;;;;;1.92;1.83;;;;;;;25.74;53.18;101095.91;5055608;28;20549;-28
2022/07/22 08:48:14;;;;;;;1.45;1.35;;;;;;;25.73;53.57;101091.47;5073078;28;20060;-28
2022/07/22 08:50:40;;;;;;;2.13;1.35;;;;;;;25.77;53.70;101102.09;5073894;28;20476;-28
2022/07/22 08:53:10;;;;;;;2.10;1.63;;;;;;;25.77;53.44;101091.28;5073212;28;20361;-28
2022/07/22 08:55:43;;;;;;;4.05;2.20;;;;;;;25.79;53.77;101094.72;5073486;28;20506;-27
2022/07/22 08:58:08;;;;;;;2.28;1.40;;;;;;;25.81;53.96;101092.81;5073511;28;20031;-28
2022/07/22 09:00:34;;;;;;;2.08;1.60;;;;;;;25.83;53.83;101098.94;5073058;28;20067;-27
2022/07/22 09:02:59;;;;;;;1.42;1.30;;;;;;;25.83;53.95;101101.66;5073438;28;20021;-28
2022/07/22 09:05:32;;;;;;;3.40;1.60;;;;;;;25.82;53.67;101100.81;5055000;28;20056;-27
2022/07/22 09:07:58;;;;;;;1.80;1.70;;;;;;;25.82;53.94;101100.81;5073170;28;20025;-27
2022/07/22 09:10:24;;;;;;;1.38;1.27;;;;;;;25.86;54.00;101102.31;5055465;28;20062;-28
2022/07/22 09:12:53;;;;;;;1.60;1.50;;;;;;;25.90;54.28;101102.97;5072984;28;20043;-28
2022/07/22 09:15:29;;;;;;;3.78;1.55;;;;;;;25.95;54.17;101105.38;5072674;28;20032;-28
2022/07/22 09:17:54;;;;;;;2.03;1.48;;;;;;;25.96;54.30;101107.97;5072569;28;20480;-28
2022/07/22 09:20:20;;;;;;;1.52;1.42;;;;;;;25.97;54.21;101108.81;5055498;28;20025;-28
2022/07/22 09:22:47;;;;;;;1.58;1.48;;;;;;;25.97;54.10;101115.09;5072272;28;20043;-28
2022/07/22 09:25:18;;;;;;;1.85;1.50;;;;;;;26.00;54.04;101112.19;5055223;28;20024;-27
2022/07/22 09:27:44;;;;;;;1.98;1.60;;;;;;;25.99;53.65;101113.19;5072167;28;20480;-28
2022/07/22 09:30:23;;;;;;;1.73;1.63;;;;;;;25.99;53.86;101112.28;5071565;28;20077;-28
2022/07/22 09:32:49;;;;;;;1.63;1.52;;;;;;;25.98;53.70;101116.81;5072566;28;20029;-28
2022/07/22 09:35:15;;;;;;;1.55;1.42;;;;;;;26.02;53.81;101117.50;5073015;28;20027;-27
2022/07/22 09:37:47;;;;;;;1.60;1.50;;;;;;;26.05;53.71;101116.41;5072042;28;20080;-27
2022/07/22 09:40:18;;;;;;;3.90;1.77;;;;;;;26.07;53.67;101119.91;5072597;28;20024;-28
2022/07/22 09:42:45;;;;;;;2.28;2.10;;;;;;;26.07;53.44;101119.91;5054195;28;20024;-28
2022/07/22 09:45:11;;;;;;;3.17;1.90;;;;;;;26.10;53.45;101116.97;5072113;28;20498;-28
2022/07/22 09:47:36;;;;;;;1.60;1.50;;;;;;;26.14;53.25;101121.19;5054368;28;20028;-28
2022/07/22 09:50:02;;;;;;;2.28;1.95;;;;;;;26.15;53.18;101120.22;5072533;28;20024;-28
2022/07/22 09:52:27;;;;;;;1.77;1.67;;;;;;;26.21;53.21;101124.34;5072284;28;20035;-27
2022/07/22 09:54:53;;;;;;;1.70;1.60;;;;;;;26.22;52.87;101128.78;5071626;28;20024;-27
2022/07/22 09:57:19;;;;;;;1.92;1.83;;;;;;;26.24;52.89;101118.75;5071928;28;20025;-27
2022/07/22 09:59:44;;;;;;;2.33;2.13;;;;;;;26.28;53.08;101119.41;5072107;28;20100;-28
2022/07/22 10:02:10;;;;;;;2.25;2.10;;;;;;;26.34;53.21;101116.28;5072150;28;20029;-27
2022/07/22 10:04:36;;;;;;;2.15;2.05;;;;;;;26.38;52.83;101129.47;5053490;28;20035;-28
2022/07/22 10:07:02;;;;;;;2.05;1.95;;;;;;;26.42;52.94;101115.75;5053788;28;20490;-28
2022/07/22 10:09:28;;;;;;;2.35;2.15;;;;;;;26.48;52.42;101118.88;5071647;28;20031;-28
2022/07/22 10:11:54;;;;;;;2.25;2.05;;;;;;;26.51;52.45;101117.81;5053906;28;20103;-28
2022/07/22 10:14:20;;;;;;;2.80;2.60;;;;;;;26.57;52.50;101113.81;5037005;28;20052;-28
2022/07/22 10:16:45;;;;;;;2.63;2.50;;;;;;;26.62;52.32;101115.22;5071525;28;20085;-28
2022/07/22 10:19:11;;;;;;;3.28;2.33;;;;;;;26.69;52.41;101114.78;5071770;28;20025;-27
2022/07/22 10:21:37;;;;;;;3.33;3.03;;;;;;;26.73;52.15;101111.75;5053494;28;20024;-28
2022/07/22 10:24:09;;;;;;;3.08;2.80;;;;;;;26.76;52.10;101119.66;5071469;28;20024;-27
2022/07/22 10:27:04;;;;;;;3.50;3.20;;;;;;;26.85;51.99;101115.44;5076796;28;20497;-28
2022/07/22 10:29:40;;;;;;;3.28;2.67;;;;;;;26.89;51.54;101121.47;5056711;28;20116;-28
2022/07/22 10:32:17;;;;;;;3.53;3.22;;;;;;;26.95;51.82;101114.75;5071299;28;20029;-28
2022/07/22 10:34:44;;;;;;;4.20;3.80;;;;;;;26.95;51.68;101114.75;5071086;28;20043;-28
2022/07/22 10:37:43;;;;;;;3.70;3.42;;;;;;;27.04;52.02;101114.09;5053555;28;20025;-28
2022/07/22 10:40:13;;;;;;;3.10;2.85;;;;;;;27.14;51.79;101108.91;5040008;28;20029;-27
2022/07/22 10:43:11;;;;;;;3.60;3.30;;;;;;;27.23;51.49;101104.66;5071125;28;20024;-28
2022/07/22 10:45:40;;;;;;;4.20;3.80;;;;;;;27.33;51.33;101107.53;5018715;28;20048;-28
2022/07/22 10:48:10;;;;;;;3.83;3.47;;;;;;;27.36;50.86;101100.06;5071778;28;20086;-28
2022/07/22 10:50:35;;;;;;;4.80;4.18;;;;;;;27.43;50.95;101103.19;5071595;28;20105;-27
2022/07/22 10:53:02;;;;;;;4.60;4.20;;;;;;;27.48;50.87;101100.97;5071206;28;20079;-27
2022/07/22 10:55:27;;;;;;;4.20;3.90;;;;;;;27.58;50.30;101089.47;5071263;28;20267;-27
2022/07/22 10:57:53;;;;;;;4.57;4.18;;;;;;;27.63;49.94;101095.44;5071030;28;20028;-27
2022/07/22 11:00:18;;;;;;;4.25;3.95;;;;;;;27.71;50.09;101097.59;5071075;28;20409;-28
2022/07/22 11:02:44;;;;;;;7.38;4.03;;;;;;;27.75;50.15;101097.25;5038447;28;20025;-28
2022/07/22 11:05:09;;;;;;;4.32;3.92;;;;;;;27.88;50.43;101090.88;5069377;28;20101;-28
2022/07/22 11:07:41;;;;;;;4.30;3.92;;;;;;;27.95;49.43;101094.84;5071122;28;20024;-28
2022/07/22 11:10:15;;;;;;;5.30;4.00;;;;;;;28.00;49.87;101089.94;5071384;28;20032;-28
2022/07/22 11:12:41;;;;;;;4.53;3.53;;;;;;;28.10;49.60;101091.94;5071025;28;20039;-27
2022/07/22 11:15:07;;;;;;;3.88;3.58;;;;;;;28.20;49.31;101087.50;5071459;28;20353;-28
2022/07/22 11:17:34;;;;;;;4.15;3.75;;;;;;;28.29;49.06;101089.56;5070807;28;20032;-28
2022/07/22 11:20:10;;;;;;;3.78;3.47;;;;;;;28.39;48.98;101083.38;5071233;28;20020;-28